Time;durP1;ratioP1;P1;durP2;ratioP2;P2;SDS_P1;SDS_P2;PMS_P1;PMS_P2;Temp;Humidity;BMP_temperature;BMP_pressure;BME280_temperature;BME280_humidity;BME280_pressure;Samples;Min_cycle;Max_cycle;Signal;HPM_P1;HPM_P2
2023/10/15 00:00:32;;;;;;;955.67;904.63;;;;;;;15.15;62.32;98892.47;5060461;27;102949;-62
2023/10/15 00:03:00;;;;;;;964.78;913.28;;;;;;;15.41;62.32;98893.66;5056827;27;103942;-61
2023/10/15 00:05:28;;;;;;;968.63;915.80;;;;;;;15.48;61.82;98886.84;5059190;27;104161;-61
2023/10/15 00:07:57;;;;;;;955.43;903.83;;;;;;;15.41;61.53;98898.97;5042114;27;104513;-61
2023/10/15 00:10:27;;;;;;;1007.80;951.47;;;;;;;15.44;60.91;98888.06;5057360;27;102739;-61
2023/10/15 00:12:58;;;;;;;934.55;885.45;;;;;;;15.15;63.33;98888.97;5059048;27;104031;-61
2023/10/15 00:15:28;;;;;;;993.50;936.88;;;;;;;15.46;61.03;98894.16;5059110;27;104337;-62
2023/10/15 00:17:59;;;;;;;928.17;878.70;;;;;;;14.94;63.84;98897.00;5063355;27;103249;-61
2023/10/15 00:20:34;;;;;;;979.10;925.10;;;;;;;15.15;62.27;98886.31;5041936;27;102766;-62
2023/10/15 00:23:05;;;;;;;899.97;853.63;;;;;;;14.06;65.90;98888.59;5057885;27;103871;-62
2023/10/15 00:25:36;;;;;;;973.53;919.93;;;;;;;15.10;62.96;98890.19;5040455;27;104374;-62
2023/10/15 00:28:09;;;;;;;1061.77;999.40;;;;;;;15.71;60.83;98883.94;5060178;27;103436;-62
2023/10/15 00:30:39;;;;;;;1043.95;982.95;;;;;;;15.77;60.62;98892.22;5055462;27;102662;-62
2023/10/15 00:33:11;;;;;;;1069.38;999.90;;;;;;;15.97;59.65;98890.41;5059789;27;104095;-62
2023/10/15 00:35:44;;;;;;;1068.63;999.90;;;;;;;16.18;58.67;98889.28;5038658;27;104148;-62
2023/10/15 00:38:16;;;;;;;1087.90;999.90;;;;;;;16.31;58.41;98883.66;5039204;27;104184;-61
2023/10/15 00:40:45;;;;;;;1075.93;999.90;;;;;;;16.44;57.88;98888.69;5055410;27;102785;-62
2023/10/15 00:43:17;;;;;;;1109.25;999.90;;;;;;;16.46;58.24;98892.06;5046699;27;102851;-62
2023/10/15 00:45:47;;;;;;;1092.28;999.90;;;;;;;16.28;57.86;98883.13;5045736;27;104226;-62
2023/10/15 00:48:22;;;;;;;1077.70;999.90;;;;;;;16.30;58.49;98884.66;5040881;27;104297;-62
2023/10/15 00:50:55;;;;;;;1084.97;999.90;;;;;;;16.45;58.83;98880.53;5060134;27;102589;-62
2023/10/15 00:53:27;;;;;;;1075.18;999.90;;;;;;;16.30;58.95;98873.13;5063972;27;102796;-62
2023/10/15 00:56:03;;;;;;;1025.30;966.08;;;;;;;15.94;60.30;98870.22;5045090;27;104091;-62
2023/10/15 00:58:38;;;;;;;1065.65;999.90;;;;;;;16.26;59.43;98864.56;5060557;27;104043;-62
2023/10/15 01:01:26;;;;;;;1050.80;989.67;;;;;;;16.24;59.49;98872.72;5060452;27;103074;-62
2023/10/15 01:03:59;;;;;;;1047.53;986.78;;;;;;;16.31;59.23;98872.16;5061049;27;103076;-62
2023/10/15 01:06:35;;;;;;;986.33;930.30;;;;;;;15.51;61.51;98873.28;5058435;27;103842;-61
2023/10/15 01:09:09;;;;;;;1026.77;967.57;;;;;;;16.10;60.63;98874.97;5060795;27;103161;-62
2023/10/15 01:11:43;;;;;;;1075.25;999.90;;;;;;;16.43;59.80;98861.19;5044222;27;102648;-62
2023/10/15 01:14:14;;;;;;;1056.20;993.45;;;;;;;16.47;58.89;98853.75;5039036;27;102916;-61
2023/10/15 01:16:44;;;;;;;1044.75;983.58;;;;;;;16.31;59.65;98856.97;5044143;27;104234;-62
2023/10/15 01:19:19;;;;;;;998.78;942.97;;;;;;;15.83;61.67;98853.53;5043899;27;104121;-63
2023/10/15 01:21:53;;;;;;;945.63;894.10;;;;;;;15.73;62.44;98855.34;5063336;27;102558;-62
2023/10/15 01:24:26;;;;;;;1044.38;984.13;;;;;;;16.34;60.69;98856.69;5040211;27;103724;-61
2023/10/15 01:27:08;;;;;;;1055.13;994.17;;;;;;;16.46;60.26;98849.38;5041528;27;104688;-62
2023/10/15 01:29:39;;;;;;;1033.50;973.60;;;;;;;16.36;60.17;98857.44;5037740;27;103070;-62
2023/10/15 01:32:10;;;;;;;1071.95;999.90;;;;;;;16.68;59.51;98849.91;5040631;27;102696;-61
2023/10/15 01:34:44;;;;;;;1069.85;999.90;;;;;;;16.66;59.29;98848.38;5063445;27;102631;-62
2023/10/15 01:37:24;;;;;;;1040.20;980.20;;;;;;;16.40;59.56;98864.13;5040369;27;104246;-62
2023/10/15 01:40:00;;;;;;;1051.68;990.80;;;;;;;16.29;59.77;98853.63;5044633;27;104168;-61
2023/10/15 01:42:41;;;;;;;1050.93;988.67;;;;;;;16.43;60.28;98853.19;5062808;27;102647;-61
2023/10/15 01:45:17;;;;;;;1044.00;983.00;;;;;;;16.15;60.50;98864.72;5044868;27;103955;-62
2023/10/15 01:48:03;;;;;;;1034.30;974.28;;;;;;;16.12;60.91;98857.88;5043710;27;104373;-62
2023/10/15 01:50:40;;;;;;;1052.88;991.70;;;;;;;15.95;60.70;98863.91;5056639;27;103188;-61
2023/10/15 01:53:08;;;;;;;1023.33;963.97;;;;;;;16.25;60.38;98862.91;5044757;27;102728;-62
2023/10/15 01:55:36;;;;;;;1057.45;994.50;;;;;;;16.42;59.76;98867.50;5043013;27;103940;-62
2023/10/15 01:58:12;;;;;;;1116.38;999.90;;;;;;;16.86;59.41;98859.81;5048655;27;104261;-63
2023/10/15 02:00:43;;;;;;;1104.72;999.90;;;;;;;17.02;58.50;98863.56;5041549;27;103332;-63
2023/10/15 02:03:12;;;;;;;1087.10;999.90;;;;;;;17.07;58.76;98863.09;5062370;27;102656;-62
2023/10/15 02:05:44;;;;;;;1102.40;999.90;;;;;;;17.17;58.68;98861.25;5057713;27;103894;-62
2023/10/15 02:08:14;;;;;;;1106.07;999.90;;;;;;;17.21;58.81;98857.25;5054830;27;103693;-62
2023/10/15 02:10:47;;;;;;;1087.53;999.90;;;;;;;17.18;58.69;98852.22;5037811;27;103981;-62
2023/10/15 02:13:17;;;;;;;1092.87;999.90;;;;;;;17.17;58.61;98855.91;5043238;27;102653;-62
2023/10/15 02:15:49;;;;;;;1058.70;996.87;;;;;;;16.66;59.41;98851.91;5044597;27;103755;-62
2023/10/15 02:18:18;;;;;;;985.67;930.03;;;;;;;16.39;61.15;98848.28;5038465;27;104179;-62
2023/10/15 02:21:00;;;;;;;1035.25;974.95;;;;;;;16.57;61.31;98838.56;5041545;27;103586;-62
2023/10/15 02:23:32;;;;;;;992.30;935.90;;;;;;;15.90;61.88;98846.66;5059760;27;102758;-62
2023/10/15 02:26:00;;;;;;;979.70;924.30;;;;;;;15.73;62.45;98844.69;5061609;27;102703;-62
2023/10/15 02:28:32;;;;;;;1056.25;993.95;;;;;;;16.50;60.79;98843.63;5058225;27;103631;-62
2023/10/15 02:31:14;;;;;;;999.47;942.90;;;;;;;15.75;62.19;98837.41;5059445;27;103213;-63
2023/10/15 02:33:43;;;;;;;993.15;937.50;;;;;;;15.72;62.34;98843.03;5057089;27;102699;-62
2023/10/15 02:36:16;;;;;;;986.08;929.80;;;;;;;15.74;63.45;98835.72;5040261;27;102668;-63
2023/10/15 02:38:56;;;;;;;1047.85;985.55;;;;;;;16.39;61.84;98843.81;5037257;27;104235;-60
2023/10/15 02:41:31;;;;;;;1075.40;999.90;;;;;;;16.67;60.62;98832.22;5055927;27;104050;-62
2023/10/15 02:44:00;;;;;;;1079.90;999.90;;;;;;;16.67;60.57;98837.56;5041010;27;102797;-62
2023/10/15 02:46:36;;;;;;;1097.70;999.90;;;;;;;16.71;60.31;98832.78;5046272;27;104134;-62
2023/10/15 02:49:07;;;;;;;993.57;936.90;;;;;;;15.72;63.23;98846.50;5037118;27;104343;-62
2023/10/15 02:51:36;;;;;;;1035.03;974.60;;;;;;;16.22;61.95;98839.22;5052473;27;103096;-62
2023/10/15 02:54:18;;;;;;;976.90;922.35;;;;;;;15.42;64.88;98836.78;5056778;27;102625;-62
2023/10/15 02:56:49;;;;;;;1041.47;980.55;;;;;;;16.01;63.59;98838.50;5039314;27;103156;-62
2023/10/15 02:59:18;;;;;;;1008.88;951.40;;;;;;;16.16;63.04;98842.44;5035432;27;104673;-62
2023/10/15 03:01:46;;;;;;;1050.03;987.67;;;;;;;16.54;61.82;98836.19;5033751;27;104384;-62
2023/10/15 03:04:18;;;;;;;1023.05;964.78;;;;;;;16.31;62.92;98846.31;5033608;27;102719;-62
2023/10/15 03:06:48;;;;;;;1098.47;999.90;;;;;;;16.78;61.33;98834.75;5054845;27;103955;-63
2023/10/15 03:09:18;;;;;;;987.17;931.08;;;;;;;15.54;64.38;98838.38;5055969;27;103218;-62
2023/10/15 03:11:51;;;;;;;1043.55;981.80;;;;;;;16.44;63.29;98835.38;5040711;27;104142;-63
2023/10/15 03:14:21;;;;;;;1027.53;967.28;;;;;;;16.36;63.15;98841.44;5039691;27;102677;-62
2023/10/15 03:16:50;;;;;;;1051.20;988.67;;;;;;;16.35;62.13;98842.41;5044643;27;103660;-62
2023/10/15 03:19:19;;;;;;;996.03;938.87;;;;;;;15.92;63.89;98834.03;5042657;27;103498;-62
2023/10/15 03:21:56;;;;;;;961.17;906.65;;;;;;;16.08;64.43;98839.66;5039871;27;104366;-63
2023/10/15 03:24:24;;;;;;;1057.40;994.60;;;;;;;16.53;62.54;98838.03;5036568;27;102687;-63
2023/10/15 03:26:55;;;;;;;1047.20;984.65;;;;;;;16.13;62.92;98842.72;5054427;27;102691;-63
2023/10/15 03:29:26;;;;;;;1087.60;999.90;;;;;;;16.77;61.50;98832.19;5036846;27;104490;-62
2023/10/15 03:32:04;;;;;;;1107.55;999.90;;;;;;;16.98;60.73;98829.31;5038051;27;103171;-62
2023/10/15 03:34:35;;;;;;;1068.88;999.90;;;;;;;16.92;60.75;98824.56;5057382;27;102826;-63
2023/10/15 03:37:07;;;;;;;1066.18;999.90;;;;;;;17.03;60.67;98827.03;5038186;27;104015;-62
2023/10/15 03:39:54;;;;;;;1121.80;999.90;;;;;;;17.23;59.99;98839.28;5041639;27;104268;-63
2023/10/15 03:42:27;;;;;;;1111.97;999.90;;;;;;;17.35;59.53;98838.06;5040742;27;104122;-62
2023/10/15 03:45:00;;;;;;;1045.43;982.15;;;;;;;16.76;61.54;98831.34;5037703;27;102754;-63
2023/10/15 03:47:28;;;;;;;1040.60;979.13;;;;;;;16.75;61.45;98840.34;5061663;27;104048;-62
2023/10/15 03:49:56;;;;;;;1020.65;961.05;;;;;;;16.09;63.58;98839.50;5053034;27;103052;-63
2023/10/15 03:52:26;;;;;;;1073.30;999.90;;;;;;;16.49;62.31;98844.63;5050810;27;103171;-62
2023/10/15 03:54:55;;;;;;;1013.53;953.70;;;;;;;16.34;63.22;98847.84;5036966;27;102644;-62
2023/10/15 03:57:27;;;;;;;972.63;917.47;;;;;;;15.18;67.35;98843.47;5035650;27;104026;-62
2023/10/15 03:59:58;;;;;;;954.72;901.40;;;;;;;15.56;67.79;98854.19;5056512;27;103255;-62
2023/10/15 04:02:39;;;;;;;966.93;911.43;;;;;;;15.37;66.64;98849.66;5057436;27;103214;-62
2023/10/15 04:05:12;;;;;;;970.67;914.93;;;;;;;15.39;67.44;98849.50;5049207;27;102616;-62
2023/10/15 04:07:47;;;;;;;956.22;902.35;;;;;;;15.45;67.82;98852.47;5054879;27;104181;-63
2023/10/15 04:10:22;;;;;;;967.00;911.17;;;;;;;15.45;67.47;98841.84;5058555;27;104170;-63
2023/10/15 04:12:51;;;;;;;954.97;900.88;;;;;;;15.61;68.20;98847.47;5055245;27;103202;-63
2023/10/15 04:15:22;;;;;;;980.47;923.93;;;;;;;15.98;67.99;98852.13;5056066;27;103963;-62
2023/10/15 04:17:51;;;;;;;1050.82;988.20;;;;;;;16.39;64.92;98848.28;5043874;27;103010;-63
2023/10/15 04:20:26;;;;;;;1028.65;967.83;;;;;;;16.59;64.07;98848.13;5055769;27;104119;-63
2023/10/15 04:22:54;;;;;;;998.78;940.90;;;;;;;15.42;66.70;98852.75;5052175;27;103192;-63
2023/10/15 04:25:26;;;;;;;962.17;907.67;;;;;;;15.22;69.03;98845.69;5059317;27;102791;-63
2023/10/15 04:27:56;;;;;;;941.33;888.63;;;;;;;15.48;70.65;98846.91;5057793;27;102819;-63
2023/10/15 04:30:26;;;;;;;990.83;932.00;;;;;;;16.32;66.76;98848.00;5051210;27;103891;-62
2023/10/15 04:32:56;;;;;;;1060.95;996.78;;;;;;;16.69;63.74;98840.94;5039552;27;103808;-63
2023/10/15 04:35:29;;;;;;;1059.53;995.65;;;;;;;16.77;63.73;98851.72;5055846;27;102687;-63
2023/10/15 04:38:03;;;;;;;1093.07;999.90;;;;;;;17.10;62.24;98850.31;5058751;27;104186;-63
2023/10/15 04:40:39;;;;;;;1062.90;998.67;;;;;;;16.87;63.24;98842.84;5054396;27;104198;-63
2023/10/15 04:43:07;;;;;;;1105.70;999.90;;;;;;;17.28;61.76;98848.53;5050355;27;103209;-63
2023/10/15 04:45:42;;;;;;;1111.75;999.90;;;;;;;17.44;62.00;98845.19;5058930;27;102660;-63
2023/10/15 04:48:14;;;;;;;1078.03;999.90;;;;;;;17.49;61.59;98848.25;5059070;27;103730;-63
2023/10/15 04:50:44;;;;;;;1047.07;984.20;;;;;;;17.25;63.25;98846.16;5055144;27;104153;-63
2023/10/15 04:53:15;;;;;;;1072.95;999.90;;;;;;;17.53;62.54;98846.13;5057128;27;103209;-63
2023/10/15 04:55:44;;;;;;;1041.50;978.80;;;;;;;17.64;63.43;98849.44;5054339;27;102733;-62
2023/10/15 04:58:13;;;;;;;1013.65;953.20;;;;;;;17.34;64.50;98836.41;5052718;27;102693;-62
2023/10/15 05:00:43;;;;;;;1042.07;978.80;;;;;;;17.44;64.04;98850.53;5038911;27;104420;-62
2023/10/15 05:03:12;;;;;;;1040.85;977.05;;;;;;;17.62;63.67;98840.75;5048636;27;103350;-62
2023/10/15 05:05:42;;;;;;;1041.78;978.80;;;;;;;17.70;63.49;98843.50;5051473;27;102686;-62
2023/10/15 05:08:11;;;;;;;1053.38;989.58;;;;;;;17.75;63.07;98851.91;5052849;27;104117;-62
2023/10/15 05:10:44;;;;;;;1063.07;998.00;;;;;;;17.36;63.11;98850.44;5053102;27;104039;-62
2023/10/15 05:13:13;;;;;;;990.80;931.08;;;;;;;17.06;64.90;98858.75;5055346;27;103228;-62
2023/10/15 05:15:44;;;;;;;1005.63;945.53;;;;;;;17.37;64.32;98852.13;5048251;27;102951;-62
2023/10/15 05:18:13;;;;;;;977.47;919.45;;;;;;;16.80;65.60;98859.44;5054540;27;102917;-62
2023/10/15 05:20:44;;;;;;;976.10;920.28;;;;;;;16.83;66.50;98858.28;5056644;27;104262;-63
2023/10/15 05:23:12;;;;;;;1032.07;969.55;;;;;;;17.12;65.20;98860.84;5030575;27;103422;-62
2023/10/15 05:25:40;;;;;;;1011.03;950.73;;;;;;;16.97;65.26;98855.16;5037739;27;102998;-62
2023/10/15 05:28:09;;;;;;;1053.63;990.17;;;;;;;17.48;64.77;98857.28;5041252;27;104159;-63
2023/10/15 05:30:38;;;;;;;1000.17;940.83;;;;;;;16.94;65.31;98857.25;5059819;27;104253;-59
2023/10/15 05:33:07;;;;;;;1047.13;983.38;;;;;;;17.32;65.02;98857.06;5059862;27;103375;-62
2023/10/15 05:35:37;;;;;;;1071.55;999.90;;;;;;;17.46;63.44;98861.91;5057174;27;102652;-60
2023/10/15 05:38:08;;;;;;;1072.73;999.90;;;;;;;17.55;63.40;98858.38;5054618;27;104557;-63
2023/10/15 05:40:37;;;;;;;1021.13;959.95;;;;;;;17.35;64.11;98859.44;5060789;27;104019;-63
2023/10/15 05:43:05;;;;;;;934.05;880.75;;;;;;;15.81;70.92;98868.78;5057039;27;103313;-60
2023/10/15 05:45:33;;;;;;;929.23;876.60;;;;;;;16.62;69.47;98871.84;5057938;27;102735;-60
2023/10/15 05:48:01;;;;;;;973.93;915.63;;;;;;;16.61;68.33;98880.00;5063139;27;103956;-60
2023/10/15 05:50:31;;;;;;;975.70;918.07;;;;;;;16.84;68.94;98883.16;5058434;27;104194;-61
2023/10/15 05:52:59;;;;;;;1020.78;958.42;;;;;;;17.06;66.09;98888.97;5060137;27;103284;-61
2023/10/15 05:55:28;;;;;;;1023.00;961.60;;;;;;;17.16;65.81;98891.59;5056448;27;102852;-60
2023/10/15 05:57:58;;;;;;;1029.35;967.42;;;;;;;17.35;65.18;98894.16;5060955;27;103866;-66
2023/10/15 06:00:27;;;;;;;1065.73;999.80;;;;;;;17.44;65.05;98890.59;5034026;27;104583;-65
2023/10/15 06:02:55;;;;;;;1029.13;967.65;;;;;;;17.09;64.71;98885.16;5037547;27;104408;-65
2023/10/15 06:05:24;;;;;;;1013.15;951.25;;;;;;;17.21;66.44;98890.16;5021902;27;102842;-65
2023/10/15 06:07:54;;;;;;;997.25;937.45;;;;;;;17.17;66.37;98883.44;5057625;27;104216;-65
2023/10/15 06:10:23;;;;;;;984.65;926.38;;;;;;;17.06;66.88;98882.78;5038080;27;105075;-65
2023/10/15 06:12:51;;;;;;;1025.63;962.90;;;;;;;17.36;66.04;98886.00;5060395;27;103272;-66
2023/10/15 06:15:19;;;;;;;1043.03;979.67;;;;;;;17.46;65.37;98893.94;5057157;27;102700;-65
2023/10/15 06:17:52;;;;;;;1002.55;942.08;;;;;;;17.04;66.60;98900.78;5032277;27;102839;-66
2023/10/15 06:20:24;;;;;;;1053.97;989.35;;;;;;;17.61;65.22;98907.69;5038715;27;104302;-65
2023/10/15 06:22:55;;;;;;;1059.20;993.27;;;;;;;17.53;64.86;98899.53;5054403;27;103221;-65
2023/10/15 06:25:25;;;;;;;1020.70;958.75;;;;;;;17.40;64.52;98902.59;5055712;27;102702;-61
2023/10/15 06:27:56;;;;;;;1015.33;953.47;;;;;;;17.24;65.69;98911.22;5032288;27;104406;-61
2023/10/15 06:30:26;;;;;;;1062.57;998.33;;;;;;;17.61;64.21;98908.53;5056048;27;104477;-62
2023/10/15 06:32:54;;;;;;;1012.83;951.45;;;;;;;17.02;66.04;98914.25;5039462;27;103213;-61
2023/10/15 06:35:25;;;;;;;992.92;933.70;;;;;;;16.84;67.14;98912.50;5053657;27;102734;-65
2023/10/15 06:37:55;;;;;;;977.78;919.83;;;;;;;16.70;69.13;98925.28;5054253;27;104046;-65
2023/10/15 06:40:28;;;;;;;949.15;894.17;;;;;;;15.98;71.85;98930.25;5053534;27;103401;-65
2023/10/15 06:43:00;;;;;;;956.30;900.07;;;;;;;16.06;71.51;98935.72;5052294;27;103580;-64
2023/10/15 06:45:29;;;;;;;958.08;902.78;;;;;;;16.52;70.74;98929.66;5054274;27;102940;-65
2023/10/15 06:47:58;;;;;;;935.28;881.35;;;;;;;16.12;72.01;98935.16;5040095;27;102928;-65
2023/10/15 06:50:26;;;;;;;956.75;900.38;;;;;;;16.25;71.58;98935.72;5054094;27;103314;-65
2023/10/15 06:52:55;;;;;;;1015.13;951.92;;;;;;;17.26;68.61;98935.13;5050805;27;103227;-65
2023/10/15 06:55:25;;;;;;;1039.68;975.22;;;;;;;17.53;66.27;98942.28;5037843;27;102686;-65
2023/10/15 06:57:54;;;;;;;1089.55;999.90;;;;;;;17.83;64.56;98934.81;5053142;27;102759;-66
2023/10/15 07:00:22;;;;;;;1111.00;999.90;;;;;;;18.12;63.16;98947.13;5053752;27;103278;-65
2023/10/15 07:02:51;;;;;;;1074.90;999.90;;;;;;;17.32;64.90;98947.84;5057118;27;103249;-65
2023/10/15 07:05:20;;;;;;;1065.00;999.70;;;;;;;17.69;64.78;98947.84;5052096;27;102711;-65
2023/10/15 07:07:49;;;;;;;1039.87;977.00;;;;;;;16.97;66.04;98945.88;5055472;27;104483;-61
2023/10/15 07:10:17;;;;;;;1084.47;999.90;;;;;;;17.37;64.82;98948.28;5032270;27;104189;-61
2023/10/15 07:12:48;;;;;;;1036.13;972.72;;;;;;;17.49;67.20;98947.06;5058131;27;103274;-61
2023/10/15 07:15:17;;;;;;;1068.55;999.58;;;;;;;17.15;65.82;98954.00;5054053;27;102929;-61
2023/10/15 07:17:45;;;;;;;1045.70;982.47;;;;;;;17.20;66.39;98946.38;5054259;27;102700;-61
2023/10/15 07:20:18;;;;;;;1123.65;999.90;;;;;;;18.64;63.04;98946.28;5052947;27;103319;-61
2023/10/15 07:22:48;;;;;;;1169.78;999.90;;;;;;;19.44;59.77;98940.63;5049516;27;103289;-61
2023/10/15 07:25:17;;;;;;;1152.23;999.90;;;;;;;18.97;60.51;98948.22;5054134;27;102890;-62
2023/10/15 07:27:48;;;;;;;1160.03;999.90;;;;;;;18.32;60.43;98956.69;5054588;27;103386;-65
2023/10/15 07:30:19;;;;;;;1155.63;999.90;;;;;;;17.85;61.46;98958.72;5053106;27;104034;-65
2023/10/15 07:32:57;;;;;;;1155.47;999.90;;;;;;;18.05;61.22;98951.44;5055624;27;103183;-65
2023/10/15 07:35:27;;;;;;;1164.35;999.90;;;;;;;17.83;61.25;98961.53;5035523;27;102615;-67
2023/10/15 07:37:56;;;;;;;1154.07;999.90;;;;;;;18.88;59.82;98964.38;5053170;27;102695;-67
2023/10/15 07:40:26;;;;;;;1170.90;999.90;;;;;;;19.40;58.22;98965.19;5045919;27;104112;-62
2023/10/15 07:42:58;;;;;;;1184.07;999.90;;;;;;;18.44;57.39;98961.63;5044864;27;103202;-63
2023/10/15 07:45:29;;;;;;;1168.03;999.90;;;;;;;17.97;59.51;98968.19;5034275;27;102812;-67
2023/10/15 07:48:02;;;;;;;1169.20;999.90;;;;;;;19.23;55.91;98974.16;5055674;27;103646;-67
2023/10/15 07:50:34;;;;;;;1166.35;999.90;;;;;;;18.45;57.47;98982.06;5037237;27;103127;-67
2023/10/15 07:53:03;;;;;;;1153.35;999.90;;;;;;;19.47;57.00;98967.09;5050692;27;103208;-62
2023/10/15 07:55:34;;;;;;;1172.03;999.90;;;;;;;20.67;54.02;98975.63;5051971;27;102700;-62
2023/10/15 07:58:04;;;;;;;1187.25;999.90;;;;;;;20.78;52.58;98959.16;5058586;27;104006;-63
2023/10/15 08:00:33;;;;;;;1178.43;999.90;;;;;;;20.08;53.92;98972.16;5037304;27;104380;-62
2023/10/15 08:03:07;;;;;;;1188.20;999.90;;;;;;;20.33;54.63;98966.88;5054419;27;103090;-63
2023/10/15 08:05:36;;;;;;;1161.25;999.90;;;;;;;20.60;52.22;98972.75;5052265;27;103994;-62
2023/10/15 08:08:06;;;;;;;1162.28;999.90;;;;;;;20.29;54.27;98973.59;5034905;27;102786;-62
2023/10/15 08:10:34;;;;;;;1200.78;999.90;;;;;;;20.11;55.12;98969.16;5055266;27;103341;-63
2023/10/15 08:13:07;;;;;;;1193.65;999.90;;;;;;;19.87;54.73;98979.81;5050414;27;103202;-63
2023/10/15 08:15:36;;;;;;;1186.90;999.90;;;;;;;18.08;57.65;98976.00;5045486;27;102788;-65
2023/10/15 08:18:05;;;;;;;1190.55;999.90;;;;;;;18.99;57.27;98967.63;5053982;27;103062;-67
2023/10/15 08:20:33;;;;;;;1199.70;999.90;;;;;;;19.72;54.76;98962.69;5050277;27;104125;-67
2023/10/15 08:23:01;;;;;;;1211.03;999.90;;;;;;;19.88;54.08;98962.72;5031608;27;103385;-62
2023/10/15 08:25:31;;;;;;;1187.53;999.90;;;;;;;18.98;55.94;98968.63;5026122;27;103362;-61
2023/10/15 08:28:04;;;;;;;1209.03;999.90;;;;;;;17.61;57.90;98975.31;5045599;27;102945;-61
2023/10/15 08:30:34;;;;;;;1198.65;999.90;;;;;;;19.56;55.87;98971.47;5049572;27;104180;-61
2023/10/15 08:33:10;;;;;;;1234.40;999.90;;;;;;;20.09;52.81;98971.19;5054017;27;102977;-61
2023/10/15 08:35:38;;;;;;;1197.32;999.90;;;;;;;19.92;52.53;98974.81;5053073;27;103048;-62
2023/10/15 08:38:07;;;;;;;1209.40;999.90;;;;;;;19.64;52.14;98968.84;5053456;27;103881;-62
2023/10/15 08:40:40;;;;;;;1175.28;999.90;;;;;;;20.09;54.03;98968.50;5046703;27;103841;-67
2023/10/15 08:43:13;;;;;;;1147.37;999.90;;;;;;;19.30;54.51;98977.84;5020859;27;103187;-67
2023/10/15 08:45:45;;;;;;;1148.47;999.90;;;;;;;18.10;55.68;98989.22;5054900;27;103004;-66
2023/10/15 08:48:15;;;;;;;1138.20;999.90;;;;;;;20.22;53.59;98982.25;5029078;27;102775;-66
2023/10/15 08:50:45;;;;;;;1137.53;999.90;;;;;;;19.63;54.21;98983.25;5049651;27;103269;-66
2023/10/15 08:53:14;;;;;;;1145.18;999.90;;;;;;;18.91;54.67;98991.69;5048428;27;103211;-66
2023/10/15 08:55:43;;;;;;;1116.18;999.90;;;;;;;18.85;54.84;98986.09;5052092;27;103083;-66
2023/10/15 08:58:12;;;;;;;1138.22;999.90;;;;;;;19.05;54.26;98983.06;5052839;27;102805;-61
2023/10/15 09:00:43;;;;;;;1122.07;999.90;;;;;;;19.60;52.64;98990.75;5051397;27;103214;-61
2023/10/15 09:03:13;;;;;;;1130.53;999.90;;;;;;;16.98;58.18;98992.09;5033133;27;103271;-61
2023/10/15 09:05:43;;;;;;;1144.72;999.90;;;;;;;19.44;53.35;98993.38;5022362;27;102680;-66
2023/10/15 09:08:13;;;;;;;1126.72;999.90;;;;;;;18.63;54.30;99003.50;5049267;27;102780;-61
2023/10/15 09:10:44;;;;;;;1127.55;999.90;;;;;;;17.90;55.90;98999.22;5052024;27;103669;-66
2023/10/15 09:13:16;;;;;;;1140.70;999.90;;;;;;;18.17;55.53;99001.00;5054162;27;103253;-66
2023/10/15 09:15:49;;;;;;;1111.55;999.90;;;;;;;17.65;55.67;98994.56;5048909;27;102996;-66
2023/10/15 09:18:17;;;;;;;1127.10;999.90;;;;;;;18.15;55.11;98992.28;5051423;27;104011;-66
2023/10/15 09:20:50;;;;;;;1130.00;999.90;;;;;;;18.98;53.12;99003.41;5052131;27;104529;-65
2023/10/15 09:23:21;;;;;;;1154.68;999.90;;;;;;;18.91;53.55;99002.38;5054001;27;103258;-61
2023/10/15 09:25:53;;;;;;;1133.07;999.90;;;;;;;18.79;55.58;98998.25;5050745;27;102717;-66
2023/10/15 09:28:27;;;;;;;1136.82;999.90;;;;;;;19.00;52.70;98995.25;5054202;27;102656;-66
2023/10/15 09:31:09;;;;;;;1111.63;999.90;;;;;;;17.28;56.57;98997.22;5054939;27;104183;-66
2023/10/15 09:33:40;;;;;;;1128.25;999.90;;;;;;;18.03;54.63;99009.53;5052684;27;103210;-66
2023/10/15 09:36:09;;;;;;;1118.38;999.90;;;;;;;17.78;55.39;98997.72;5050419;27;102778;-66
2023/10/15 09:38:38;;;;;;;1134.35;999.90;;;;;;;18.38;53.90;99006.91;5052564;27;102760;-61
2023/10/15 09:41:06;;;;;;;1141.50;999.90;;;;;;;16.83;57.04;99010.38;5051152;27;104210;-61
2023/10/15 09:43:37;;;;;;;1130.65;999.90;;;;;;;16.97;56.37;99009.94;5051631;27;103218;-61
2023/10/15 09:46:09;;;;;;;1130.45;999.90;;;;;;;18.84;54.75;99005.81;5054397;27;102694;-60
2023/10/15 09:48:39;;;;;;;1136.93;999.90;;;;;;;17.97;54.27;99000.28;5028283;27;104020;-65
2023/10/15 09:51:08;;;;;;;1120.95;999.90;;;;;;;17.52;53.32;99008.22;5052565;27;104028;-60
2023/10/15 09:53:36;;;;;;;1117.68;999.90;;;;;;;18.12;52.58;99003.28;5052526;27;103323;-65
2023/10/15 09:56:07;;;;;;;1109.97;999.90;;;;;;;17.98;52.82;99011.81;5047785;27;103037;-61
2023/10/15 09:58:38;;;;;;;1108.43;999.90;;;;;;;18.56;51.08;99012.25;5054401;27;103223;-65
2023/10/15 10:01:17;;;;;;;1086.13;999.90;;;;;;;17.51;51.61;99014.56;5053083;27;103912;-62
2023/10/15 10:04:24;;;;;;;1112.85;999.90;;;;;;;18.73;50.81;99009.59;5035475;27;103053;-65
2023/10/15 10:07:12;;;;;;;1080.40;999.90;;;;;;;17.39;52.53;99013.06;5048993;27;102633;-60
2023/10/15 10:10:05;;;;;;;1077.72;999.90;;;;;;;17.42;53.44;99015.44;5048396;27;102661;-66
2023/10/15 10:13:02;;;;;;;1074.72;999.90;;;;;;;18.28;51.78;99000.78;5051497;27;103449;-61
2023/10/15 10:15:41;;;;;;;1077.95;999.90;;;;;;;18.88;50.26;99001.84;5050590;27;103193;-61
2023/10/15 10:18:13;;;;;;;1088.70;999.90;;;;;;;18.89;50.42;99016.91;5053473;27;103216;-66
2023/10/15 10:20:48;;;;;;;1097.45;999.90;;;;;;;19.02;49.41;99018.19;5051600;27;103357;-61
2023/10/15 10:23:17;;;;;;;1103.43;999.90;;;;;;;19.83;48.14;98999.06;5053970;27;103538;-61
2023/10/15 10:25:46;;;;;;;1111.65;999.90;;;;;;;19.79;48.73;99003.91;5050155;27;103018;-65
2023/10/15 10:28:15;;;;;;;1077.43;999.90;;;;;;;19.24;50.84;99002.59;5048820;27;103478;-66
2023/10/15 10:30:53;;;;;;;1107.97;999.90;;;;;;;19.86;49.28;98994.22;5044762;27;102759;-65
2023/10/15 10:33:50;;;;;;;1081.22;999.90;;;;;;;17.55;50.21;98996.41;5047152;27;103325;-65
2023/10/15 10:36:19;;;;;;;1057.03;992.70;;;;;;;16.39;54.03;99006.44;5043202;27;104160;-60
2023/10/15 10:39:11;;;;;;;1062.47;999.13;;;;;;;15.15;59.59;99016.69;5054186;27;102797;-60
2023/10/15 10:41:41;;;;;;;1079.13;999.90;;;;;;;14.91;63.33;99032.94;5054360;27;104052;-60
2023/10/15 10:44:10;;;;;;;1087.70;999.90;;;;;;;15.39;62.52;99015.41;5032342;27;104571;-60
2023/10/15 10:46:59;;;;;;;1090.85;999.90;;;;;;;16.65;58.01;99007.59;5054001;27;103206;-59
2023/10/15 10:49:30;;;;;;;1089.72;999.90;;;;;;;16.90;59.53;99013.34;5052822;27;103182;-66
2023/10/15 10:52:06;;;;;;;1099.00;999.90;;;;;;;17.76;57.12;98997.88;5050203;27;103743;-60
2023/10/15 10:54:36;;;;;;;1125.83;999.90;;;;;;;18.31;55.68;98997.78;5056485;27;104460;-60
2023/10/15 10:57:08;;;;;;;1113.75;999.90;;;;;;;18.46;57.96;99004.31;5037255;27;103103;-60
2023/10/15 10:59:41;;;;;;;1145.38;999.90;;;;;;;18.38;58.07;98999.72;5053124;27;102630;-60
2023/10/15 11:02:14;;;;;;;1143.07;999.90;;;;;;;18.40;58.05;98991.53;5053880;27;102675;-66
2023/10/15 11:04:44;;;;;;;1163.65;999.90;;;;;;;18.72;57.16;98997.22;5055309;27;104102;-66
2023/10/15 11:07:16;;;;;;;1149.97;999.90;;;;;;;18.80;56.93;98997.28;5053415;27;103258;-61